首页
METAR-TAF:

METAR-TAF

机场 :

Natchez-Adams County Airport (Hardy-Anders Field)

纳奇兹, 密西西比州, 美国

纬度: 31-37N, 经度: 091-18W, 海拔: 83米

当前天气观测

该预报发布于19分钟前的23:32 UTC
静风
温度 22°C
湿度 83%
气压 1012 hPa
能見度: 16.1公里
散云层高于2800英尺
多云层高于4900英尺
阴天层高于9000英尺

METAR: KHEZ 092332Z AUTO 00000KT 10SM SCT028 BKN049 OVC090 22/19 A2987 RMK AO2 RAE28 P0000

时间: 17:51 (23:51 UTC)


TAF: 丢失

超过4000个机场的气象观测和天气预报(METAR&TAF报告)。

可查询的气象台以黄色和红色小点在地图上表示。

将鼠标移到小点上方,可查看气象台名称。

然后点击查看天气观测和预报。

如需切换地图:点击带黑十字的绿色按钮放大地图;点击带横线的绿色按钮缩小地图;或者点击绿色箭头查看邻近地区的地图。


METAR-TAF: